createdAt,value
2023-03-04T00:00:46.376Z,81.65
2023-03-04T00:03:15.542Z,86.00
2023-03-04T00:05:43.943Z,85.38
2023-03-04T00:08:13.553Z,88.68
2023-03-04T00:10:41.839Z,85.15
2023-03-04T00:13:10.125Z,89.53
2023-03-04T00:15:38.427Z,88.18
2023-03-04T00:18:06.863Z,80.32
2023-03-04T00:20:35.092Z,90.50
2023-03-04T00:23:03.331Z,85.35
2023-03-04T00:25:33.588Z,86.85
2023-03-04T00:28:02.052Z,83.30
2023-03-04T00:30:30.405Z,82.10
2023-03-04T00:32:58.665Z,84.38
2023-03-04T00:35:27.000Z,85.13
2023-03-04T00:37:55.371Z,81.03
2023-03-04T00:40:23.638Z,82.40
2023-03-04T00:42:53.226Z,91.13
2023-03-04T00:45:21.467Z,84.82
2023-03-04T00:47:49.721Z,84.43
2023-03-04T00:50:18.268Z,81.15
2023-03-04T00:52:46.633Z,86.32
2023-03-04T00:55:14.893Z,87.53
2023-03-04T00:57:43.117Z,89.18
2023-03-04T01:00:14.417Z,89.55
2023-03-04T01:02:42.737Z,86.80
2023-03-04T01:05:11.380Z,84.50
2023-03-04T01:07:39.667Z,82.13
2023-03-04T01:10:09.818Z,80.05
2023-03-04T01:12:38.058Z,77.15
2023-03-04T01:15:07.148Z,83.78
2023-03-04T01:17:36.869Z,85.20
2023-03-04T01:20:06.608Z,93.13
2023-03-04T01:22:34.902Z,91.30
2023-03-04T01:25:03.212Z,90.07
2023-03-04T01:27:31.460Z,88.75
2023-03-04T01:29:59.753Z,94.30
2023-03-04T01:32:28.070Z,83.35
2023-03-04T01:34:57.771Z,81.10
2023-03-04T01:37:26.080Z,92.50
2023-03-04T01:39:54.308Z,92.28
2023-03-04T01:42:24.659Z,92.05
2023-03-04T01:44:53.420Z,98.10
2023-03-04T01:47:23.907Z,92.03
2023-03-04T01:49:56.238Z,93.53
2023-03-04T01:52:26.995Z,94.68
2023-03-04T01:54:55.353Z,88.70
2023-03-04T01:57:25.263Z,99.20
2023-03-04T02:00:22.282Z,92.43
2023-03-04T02:02:53.815Z,98.47
2023-03-04T02:05:22.527Z,85.57
2023-03-04T02:07:52.822Z,85.57
2023-03-04T02:10:21.435Z,95.90
2023-03-04T02:12:50.037Z,89.75
2023-03-04T02:15:18.388Z,92.88
2023-03-04T02:17:46.681Z,93.28
2023-03-04T02:20:27.141Z,92.95
2023-03-04T02:23:02.206Z,86.25
2023-03-04T02:25:34.862Z,93.35
2023-03-04T02:28:04.672Z,88.63
2023-03-04T02:30:32.991Z,79.57
2023-03-04T02:33:01.226Z,84.18
2023-03-04T02:35:29.622Z,86.32
2023-03-04T02:37:57.895Z,85.18
2023-03-04T02:40:29.994Z,88.40
2023-03-04T02:43:00.107Z,84.55
2023-03-04T02:45:42.880Z,88.07
2023-03-04T02:48:11.670Z,83.63
2023-03-04T02:50:43.118Z,88.60
2023-03-04T02:53:11.415Z,86.03
2023-03-04T02:55:39.764Z,86.43
2023-03-04T02:58:08.021Z,79.03
2023-03-04T03:00:37.053Z,74.60
2023-03-04T03:03:07.255Z,80.50
2023-03-04T03:05:36.252Z,77.50
2023-03-04T03:08:04.737Z,81.05
2023-03-04T03:10:33.457Z,82.57
2023-03-04T03:13:01.701Z,89.38
2023-03-04T03:15:30.170Z,79.38
2023-03-04T03:17:58.680Z,77.80
2023-03-04T03:20:28.360Z,80.90
2023-03-04T03:22:56.585Z,79.70
2023-03-04T03:25:24.974Z,83.85
2023-03-04T03:27:53.270Z,84.53
2023-03-04T03:30:22.145Z,85.55
2023-03-04T03:32:50.453Z,85.45
2023-03-04T03:35:18.828Z,82.72
2023-03-04T03:37:49.264Z,82.75
2023-03-04T03:40:17.716Z,82.25
2023-03-04T03:42:46.031Z,79.57
2023-03-04T03:45:14.354Z,80.88
2023-03-04T03:47:42.698Z,81.65
2023-03-04T03:50:12.010Z,77.80
2023-03-04T03:52:40.372Z,74.82
2023-03-04T03:55:10.904Z,78.18
2023-03-04T04:00:09.028Z,76.90
2023-03-04T04:02:37.367Z,81.65
2023-03-04T04:05:06.923Z,76.20
2023-03-04T04:07:35.277Z,75.60
2023-03-04T04:10:03.560Z,76.07
2023-03-04T04:12:33.556Z,75.20
2023-03-04T04:15:01.835Z,74.90
2023-03-04T04:17:30.107Z,77.68
2023-03-04T04:19:58.395Z,71.55
2023-03-04T04:22:26.653Z,68.95
2023-03-04T04:24:54.969Z,75.25
2023-03-04T04:27:23.527Z,74.53
2023-03-04T04:29:53.126Z,81.30
2023-03-04T04:32:21.442Z,78.13
2023-03-04T04:34:49.723Z,74.93
2023-03-04T04:37:17.974Z,77.95
2023-03-04T04:39:46.213Z,77.47
2023-03-04T04:42:14.475Z,75.70
2023-03-04T04:44:42.750Z,87.25
2023-03-04T04:47:12.457Z,78.93
2023-03-04T04:49:41.043Z,80.93
2023-03-04T04:52:09.293Z,76.25
2023-03-04T04:54:37.580Z,78.25
2023-03-04T04:57:05.851Z,75.35
2023-03-04T04:59:34.125Z,81.38
2023-03-04T05:02:02.475Z,83.82
2023-03-04T05:04:32.074Z,89.57
2023-03-04T05:07:00.360Z,81.03
2023-03-04T05:09:28.613Z,81.07
2023-03-04T05:11:56.921Z,79.63
2023-03-04T05:14:25.316Z,80.07
2023-03-04T05:16:53.936Z,74.30
2023-03-04T05:19:22.489Z,80.05
2023-03-04T05:21:52.155Z,81.28
2023-03-04T05:24:20.550Z,86.27
2023-03-04T05:26:48.928Z,86.68
2023-03-04T05:29:17.190Z,78.55
2023-03-04T05:31:45.537Z,84.43
2023-03-04T05:34:13.776Z,81.95
2023-03-04T05:36:42.031Z,81.95
2023-03-04T05:39:11.656Z,86.05
2023-03-04T05:41:39.958Z,78.43
2023-03-04T05:44:08.213Z,84.45
2023-03-04T05:46:36.557Z,76.60
2023-03-04T05:49:04.931Z,76.10
2023-03-04T05:51:33.270Z,78.22
2023-03-04T05:54:01.799Z,76.47
2023-03-04T05:56:33.478Z,79.68
2023-03-04T05:59:01.756Z,80.45
2023-03-04T06:01:31.368Z,85.53
2023-03-04T06:03:59.658Z,81.00
2023-03-04T06:06:28.029Z,78.88
2023-03-04T06:08:56.293Z,77.35
2023-03-04T06:11:24.539Z,75.53
2023-03-04T06:13:54.342Z,79.82
2023-03-04T06:16:23.012Z,77.45
2023-03-04T06:18:51.274Z,76.57
2023-03-04T06:21:19.501Z,70.55
2023-03-04T06:23:47.837Z,75.97
2023-03-04T06:26:16.368Z,72.95
2023-03-04T06:28:44.633Z,70.18
2023-03-04T06:31:14.299Z,70.43
2023-03-04T06:33:42.607Z,68.82
2023-03-04T06:36:10.985Z,71.18
2023-03-04T06:38:39.212Z,68.70
2023-03-04T06:41:09.035Z,73.03
2023-03-04T06:43:37.548Z,67.05
2023-03-04T06:46:06.239Z,65.32
2023-03-04T06:48:36.198Z,64.38
2023-03-04T06:51:08.528Z,68.05
2023-03-04T06:53:37.405Z,63.78
2023-03-04T06:56:06.256Z,59.97
2023-03-04T06:58:34.657Z,61.13
2023-03-04T07:01:14.459Z,65.70
2023-03-04T07:03:44.393Z,59.05
2023-03-04T07:06:13.135Z,60.58
2023-03-04T07:08:41.920Z,55.95
2023-03-04T07:11:10.502Z,57.40
2023-03-04T07:13:39.208Z,58.75
2023-03-04T07:16:08.215Z,55.30
2023-03-04T07:18:36.778Z,49.47
2023-03-04T07:21:07.717Z,52.30
2023-03-04T07:23:36.712Z,51.65
2023-03-04T07:26:05.196Z,46.85
2023-03-04T07:28:34.110Z,57.63
2023-03-04T07:31:10.431Z,58.30
2023-03-04T07:33:38.634Z,56.45
2023-03-04T07:36:08.628Z,45.05
2023-03-04T07:38:36.880Z,49.75
2023-03-04T07:41:05.361Z,47.20
2023-03-04T07:43:33.620Z,49.78
2023-03-04T07:46:02.937Z,39.10
2023-03-04T07:48:31.565Z,44.97
2023-03-04T07:51:11.648Z,45.70
2023-03-04T07:53:41.644Z,28.90
2023-03-04T07:56:12.709Z,40.90
2023-03-04T07:58:41.234Z,35.92
2023-03-04T08:01:11.083Z,48.70
2023-03-04T08:03:39.628Z,39.05
2023-03-04T08:06:08.351Z,48.30
2023-03-04T08:08:38.078Z,33.60
2023-03-04T08:11:07.120Z,42.33
2023-03-04T08:13:35.940Z,54.15
2023-03-04T08:16:04.419Z,33.88
2023-03-04T08:18:32.706Z,42.28
2023-03-04T08:21:00.997Z,35.13
2023-03-04T08:23:29.271Z,41.50
2023-03-04T08:25:58.942Z,31.35
2023-03-04T08:28:27.233Z,53.17
2023-03-04T08:30:56.691Z,43.50
2023-03-04T08:33:24.991Z,33.63
2023-03-04T08:35:54.103Z,43.05
2023-03-04T08:38:22.404Z,31.95
2023-03-04T08:40:54.247Z,30.45
2023-03-04T08:43:25.045Z,29.92
2023-03-04T08:45:53.520Z,31.58
2023-03-04T08:48:22.667Z,32.42
2023-03-04T08:50:51.566Z,36.42
2023-03-04T08:53:20.578Z,40.90
2023-03-04T08:55:49.351Z,22.77
2023-03-04T08:58:17.602Z,32.60
2023-03-04T09:00:49.570Z,28.67
2023-03-04T09:03:19.510Z,41.45
2023-03-04T09:05:49.081Z,28.75
2023-03-04T09:08:17.637Z,29.25
2023-03-04T09:10:46.614Z,23.85
2023-03-04T09:13:16.212Z,34.88
2023-03-04T09:15:47.618Z,30.60
2023-03-04T09:18:17.741Z,30.33
2023-03-04T09:20:46.130Z,33.38
2023-03-04T09:23:15.146Z,30.35
2023-03-04T09:25:43.685Z,24.33
2023-03-04T09:28:12.466Z,27.77
2023-03-04T09:30:40.945Z,25.92
2023-03-04T09:33:10.804Z,17.40
2023-03-04T09:35:39.284Z,18.20
2023-03-04T09:38:07.766Z,23.13
2023-03-04T09:40:40.853Z,27.17
2023-03-04T09:43:15.478Z,27.67
2023-03-04T09:45:47.600Z,21.75
2023-03-04T09:48:21.082Z,24.10
2023-03-04T09:51:03.481Z,13.52
2023-03-04T09:53:36.926Z,31.15
2023-03-04T09:56:06.836Z,23.35
2023-03-04T09:58:44.597Z,29.35
2023-03-04T10:01:18.929Z,19.08
2023-03-04T10:03:53.105Z,21.75
2023-03-04T10:06:23.416Z,21.20
2023-03-04T10:08:55.673Z,23.65
2023-03-04T10:11:27.335Z,29.95
2023-03-04T10:14:01.700Z,17.83
2023-03-04T10:16:33.470Z,22.83
2023-03-04T10:19:20.123Z,31.88
2023-03-04T10:21:50.481Z,18.38
2023-03-04T10:24:19.962Z,24.30
2023-03-04T10:26:50.797Z,14.15
2023-03-04T10:29:21.927Z,19.23
2023-03-04T10:31:50.608Z,19.17
2023-03-04T10:34:20.266Z,26.20
2023-03-04T10:36:56.656Z,31.08
2023-03-04T10:39:28.272Z,20.67
2023-03-04T10:42:00.012Z,18.30
2023-03-04T10:44:29.504Z,22.02
2023-03-04T10:46:59.108Z,22.25
2023-03-04T10:49:30.109Z,25.92
2023-03-04T10:52:03.797Z,15.00
2023-03-04T10:54:33.915Z,15.70
2023-03-04T10:57:04.003Z,17.00
2023-03-04T10:59:35.518Z,18.05
2023-03-04T11:02:15.320Z,17.17
2023-03-04T11:04:51.207Z,13.90
2023-03-04T11:07:19.503Z,13.15
2023-03-04T11:09:47.757Z,18.30
2023-03-04T11:12:17.890Z,17.23
2023-03-04T11:14:49.213Z,17.65
2023-03-04T11:17:26.044Z,17.02
2023-03-04T11:20:12.952Z,17.27
2023-03-04T11:22:41.518Z,14.30
2023-03-04T11:25:22.607Z,13.38
2023-03-04T11:27:54.305Z,9.27
2023-03-04T11:30:31.010Z,18.30
2023-03-04T11:33:07.206Z,12.50
2023-03-04T11:35:43.545Z,11.93
2023-03-04T11:38:18.225Z,16.58
2023-03-04T11:40:47.483Z,19.10
2023-03-04T11:43:18.858Z,18.20
2023-03-04T11:46:02.215Z,20.60
2023-03-04T11:48:39.885Z,14.57
2023-03-04T11:51:14.807Z,16.13
2023-03-04T11:53:46.170Z,17.08
2023-03-04T11:56:28.558Z,17.60
2023-03-04T11:59:15.774Z,19.95
2023-03-04T12:01:48.789Z,11.68
2023-03-04T12:04:26.434Z,16.30
2023-03-04T12:07:06.103Z,18.70
2023-03-04T12:09:41.755Z,15.77
2023-03-04T12:12:24.608Z,13.52
2023-03-04T12:15:01.635Z,17.08
2023-03-04T12:17:41.872Z,15.40
2023-03-04T12:20:21.770Z,18.25
2023-03-04T12:22:54.004Z,14.73
2023-03-04T12:25:38.378Z,16.95
2023-03-04T12:28:19.553Z,13.95
2023-03-04T12:30:57.779Z,24.08
2023-03-04T12:33:34.215Z,20.40
2023-03-04T12:36:09.796Z,24.60
2023-03-04T12:38:50.904Z,19.17
2023-03-04T12:41:33.844Z,17.80
2023-03-04T12:44:09.609Z,19.15
2023-03-04T12:46:45.925Z,21.08
2023-03-04T12:49:35.673Z,25.05
2023-03-04T12:52:10.345Z,18.27
2023-03-04T12:54:41.527Z,17.60
2023-03-04T12:57:13.620Z,14.40
2023-03-04T12:59:46.302Z,16.73
2023-03-04T13:02:35.159Z,17.75
2023-03-04T13:05:20.624Z,24.23
2023-03-04T13:07:57.736Z,15.60
2023-03-04T13:10:27.520Z,17.23
2023-03-04T13:12:57.155Z,17.23
2023-03-04T13:15:35.160Z,19.83
2023-03-04T13:18:05.948Z,24.20
2023-03-04T13:20:39.421Z,23.45
2023-03-04T13:23:27.018Z,19.15
2023-03-04T13:26:18.531Z,23.40
2023-03-04T13:28:46.961Z,18.63
2023-03-04T13:31:20.882Z,15.98
2023-03-04T13:34:00.306Z,24.27
2023-03-04T13:36:59.179Z,13.70
2023-03-04T13:39:37.300Z,21.10
2023-03-04T13:42:40.074Z,17.00
2023-03-04T13:45:33.555Z,16.38
2023-03-04T13:48:02.289Z,13.32
2023-03-04T13:50:41.536Z,17.95
2023-03-04T13:53:28.122Z,15.25
2023-03-04T13:56:06.487Z,17.60
2023-03-04T13:58:36.572Z,13.25
2023-03-04T14:01:06.965Z,19.15
2023-03-04T14:03:36.208Z,23.17
2023-03-04T14:06:18.566Z,16.38
2023-03-04T14:08:46.855Z,16.30
2023-03-04T14:11:17.299Z,19.63
2023-03-04T14:13:46.940Z,15.50
2023-03-04T14:16:21.103Z,18.65
2023-03-04T14:18:58.726Z,19.48
2023-03-04T14:21:27.100Z,18.92
2023-03-04T14:24:03.724Z,19.48
2023-03-04T14:26:33.069Z,19.27
2023-03-04T14:29:03.053Z,14.93
2023-03-04T14:31:32.950Z,22.40
2023-03-04T14:34:02.926Z,20.52
2023-03-04T14:36:33.389Z,17.98
2023-03-04T14:39:03.779Z,17.85
2023-03-04T14:41:34.897Z,22.88
2023-03-04T14:44:10.777Z,23.77
2023-03-04T14:46:41.534Z,20.70
2023-03-04T14:49:13.206Z,18.83
2023-03-04T14:51:45.931Z,19.50
2023-03-04T14:54:35.997Z,19.30
2023-03-04T14:57:24.104Z,17.60
2023-03-04T14:59:53.956Z,25.55
2023-03-04T15:02:31.115Z,25.15
2023-03-04T15:05:01.503Z,21.00
2023-03-04T15:07:36.414Z,19.92
2023-03-04T15:10:07.289Z,20.20
2023-03-04T15:12:37.504Z,19.40
2023-03-04T15:15:35.163Z,16.83
2023-03-04T15:18:04.644Z,20.55
2023-03-04T15:20:33.879Z,25.30
2023-03-04T15:23:08.403Z,24.67
2023-03-04T15:25:36.746Z,15.73
2023-03-04T15:28:07.061Z,16.10
2023-03-04T15:30:36.727Z,22.13
2023-03-04T15:33:07.036Z,16.97
2023-03-04T15:35:35.286Z,23.00
2023-03-04T15:38:03.931Z,20.38
2023-03-04T15:40:34.380Z,17.90
2023-03-04T15:43:04.512Z,23.73
2023-03-04T15:45:36.977Z,16.33
2023-03-04T15:48:08.968Z,21.27
2023-03-04T15:50:38.919Z,13.73
2023-03-04T15:53:09.430Z,13.05
2023-03-04T15:55:37.853Z,17.77
2023-03-04T15:58:06.708Z,21.17
2023-03-04T16:00:34.977Z,17.55
2023-03-04T16:03:03.266Z,18.73
2023-03-04T16:05:33.040Z,20.92
2023-03-04T16:08:01.635Z,17.55
2023-03-04T16:10:31.176Z,21.73
2023-03-04T16:12:59.478Z,17.02
2023-03-04T16:15:29.306Z,20.85
2023-03-04T16:17:58.231Z,19.45
2023-03-04T16:20:29.972Z,15.75
2023-03-04T16:23:01.417Z,22.92
2023-03-04T16:25:31.010Z,19.67
2023-03-04T16:28:02.728Z,17.83
2023-03-04T16:30:31.382Z,20.65
2023-03-04T16:32:59.667Z,21.55
2023-03-04T16:35:29.270Z,14.70
2023-03-04T16:37:59.069Z,19.50
2023-03-04T16:40:29.613Z,17.13
2023-03-04T16:45:30.166Z,16.23
2023-03-04T16:47:58.704Z,21.25
2023-03-04T16:50:28.352Z,14.52
2023-03-04T16:52:56.960Z,16.50
2023-03-04T16:55:29.142Z,13.18
2023-03-04T16:57:58.354Z,13.20
2023-03-04T17:00:28.707Z,16.75
2023-03-04T17:02:58.559Z,14.25
2023-03-04T17:05:28.734Z,22.58
2023-03-04T17:07:57.139Z,18.40
2023-03-04T17:10:26.933Z,14.93
2023-03-04T17:12:55.284Z,16.30
2023-03-04T17:15:23.563Z,18.08
2023-03-04T17:17:52.606Z,16.80
2023-03-04T17:20:21.030Z,16.30
2023-03-04T17:22:49.263Z,17.40
2023-03-04T17:25:17.494Z,18.38
2023-03-04T17:27:47.292Z,18.30
2023-03-04T17:30:15.956Z,23.37
2023-03-04T17:32:44.271Z,28.27
2023-03-04T17:35:12.955Z,23.27
2023-03-04T17:37:41.533Z,15.35
2023-03-04T17:40:14.151Z,23.27
2023-03-04T17:42:42.989Z,19.42
2023-03-04T17:45:12.819Z,12.70
2023-03-04T17:47:41.044Z,17.00
2023-03-04T17:50:10.145Z,25.23
2023-03-04T17:52:38.419Z,16.98
2023-03-04T17:55:07.860Z,17.55
2023-03-04T17:57:37.283Z,22.27
2023-03-04T18:00:07.043Z,26.80
2023-03-04T18:02:36.809Z,14.00
2023-03-04T18:05:07.472Z,17.10
2023-03-04T18:10:03.790Z,17.33
2023-03-04T18:12:32.462Z,11.93
2023-03-04T18:15:00.689Z,17.55
2023-03-04T18:17:28.945Z,12.43
2023-03-04T18:19:58.515Z,28.70
2023-03-04T18:22:26.763Z,26.67
2023-03-04T18:24:56.242Z,18.48
2023-03-04T18:27:24.487Z,13.43
2023-03-04T18:29:52.868Z,16.13
2023-03-04T18:32:21.170Z,18.85
2023-03-04T18:34:49.491Z,13.15
2023-03-04T18:37:19.219Z,22.20
2023-03-04T18:39:47.432Z,17.10
2023-03-04T18:42:15.714Z,19.42
2023-03-04T18:44:43.958Z,21.73
2023-03-04T18:47:12.684Z,22.38
2023-03-04T18:49:41.983Z,20.63
2023-03-04T18:52:10.199Z,20.33
2023-03-04T18:54:39.802Z,19.15
2023-03-04T18:57:09.593Z,13.40
2023-03-04T18:59:40.628Z,14.55
2023-03-04T19:02:14.772Z,24.75
2023-03-04T19:04:43.033Z,23.48
2023-03-04T19:07:11.252Z,14.52
2023-03-04T19:09:40.883Z,15.02
2023-03-04T19:12:09.243Z,23.67
2023-03-04T19:14:37.478Z,20.00
2023-03-04T19:17:05.716Z,18.55
2023-03-04T19:19:34.031Z,10.73
2023-03-04T19:22:02.261Z,20.42
2023-03-04T19:24:30.477Z,16.60
2023-03-04T19:27:00.134Z,19.38
2023-03-04T19:29:28.489Z,19.53
2023-03-04T19:31:56.840Z,12.35
2023-03-04T19:34:25.062Z,18.30
2023-03-04T19:36:53.284Z,21.30
2023-03-04T19:39:21.785Z,16.58
2023-03-04T19:41:50.084Z,26.98
2023-03-04T19:44:20.001Z,20.83
2023-03-04T19:46:48.316Z,24.92
2023-03-04T19:49:16.684Z,21.80
2023-03-04T19:51:44.940Z,20.92
2023-03-04T19:54:13.258Z,22.95
2023-03-04T19:56:41.479Z,23.08
2023-03-04T19:59:09.775Z,21.15
2023-03-04T20:01:39.670Z,19.95
2023-03-04T20:04:10.044Z,20.90
2023-03-04T20:06:39.876Z,24.17
2023-03-04T20:09:08.177Z,21.85
2023-03-04T20:11:44.238Z,22.70
2023-03-04T20:14:19.537Z,23.95
2023-03-04T20:16:49.188Z,15.73
2023-03-04T20:19:17.429Z,18.20
2023-03-04T20:21:45.904Z,16.20
2023-03-04T20:24:15.152Z,20.98
2023-03-04T20:26:43.461Z,15.40
2023-03-04T20:29:11.762Z,25.60
2023-03-04T20:31:40.297Z,15.43
2023-03-04T20:34:10.059Z,18.17
2023-03-04T20:36:39.058Z,17.60
2023-03-04T20:39:21.501Z,24.05
2023-03-04T20:41:55.684Z,14.25
2023-03-04T20:44:23.895Z,18.30
2023-03-04T20:46:52.236Z,28.33
2023-03-04T20:49:24.060Z,24.63
2023-03-04T20:51:53.131Z,21.27
2023-03-04T20:54:21.684Z,23.92
2023-03-04T20:56:50.346Z,27.20
2023-03-04T20:59:19.143Z,27.23
2023-03-04T21:01:48.837Z,30.90
2023-03-04T21:04:17.389Z,20.10
2023-03-04T21:06:47.424Z,29.02
2023-03-04T21:09:17.200Z,28.15
2023-03-04T21:11:45.999Z,29.73
2023-03-04T21:14:15.953Z,34.38
2023-03-04T21:16:44.191Z,28.40
2023-03-04T21:19:16.859Z,27.10
2023-03-04T21:21:47.567Z,28.48
2023-03-04T21:26:47.412Z,30.08
2023-03-04T21:29:16.477Z,32.42
2023-03-04T21:31:46.830Z,31.73
2023-03-04T21:34:17.957Z,29.60
2023-03-04T21:36:47.580Z,30.15
2023-03-04T21:39:17.673Z,32.07
2023-03-04T21:41:46.151Z,22.02
2023-03-04T21:44:23.072Z,30.80
2023-03-04T21:46:57.491Z,27.75
2023-03-04T21:49:25.747Z,28.00
2023-03-04T21:51:55.562Z,32.03
2023-03-04T21:54:24.092Z,37.40
2023-03-04T21:56:52.468Z,27.50
2023-03-04T21:59:21.688Z,32.95
2023-03-04T22:01:49.998Z,24.23
2023-03-04T22:04:18.248Z,27.10
2023-03-04T22:06:46.495Z,33.03
2023-03-04T22:09:16.222Z,19.52
2023-03-04T22:11:44.608Z,27.35
2023-03-04T22:14:13.172Z,25.83
2023-03-04T22:16:54.356Z,26.80
2023-03-04T22:19:23.837Z,26.90
2023-03-04T22:21:52.537Z,29.88
2023-03-04T22:24:22.675Z,26.52
2023-03-04T22:26:51.008Z,28.88
2023-03-04T22:29:19.319Z,24.48
2023-03-04T22:31:47.847Z,27.52
2023-03-04T22:34:16.867Z,36.78
2023-03-04T22:36:46.457Z,30.45
2023-03-04T22:39:19.273Z,24.70
2023-03-04T22:41:49.337Z,34.05
2023-03-04T22:44:17.761Z,26.80
2023-03-04T22:46:46.073Z,29.80
2023-03-04T22:49:15.061Z,27.92
2023-03-04T22:51:45.158Z,30.60
2023-03-04T22:54:14.272Z,28.73
2023-03-04T22:56:42.664Z,26.88
2023-03-04T22:59:13.173Z,27.98
2023-03-04T23:04:10.110Z,26.13
2023-03-04T23:06:38.528Z,35.70
2023-03-04T23:09:07.347Z,26.00
2023-03-04T23:11:36.929Z,30.90
2023-03-04T23:14:07.309Z,33.58
2023-03-04T23:16:41.051Z,33.28
2023-03-04T23:19:10.266Z,26.42
2023-03-04T23:21:38.733Z,33.67
2023-03-04T23:24:08.618Z,34.03
2023-03-04T23:26:39.767Z,30.45
2023-03-04T23:29:10.862Z,26.17
2023-03-04T23:31:40.509Z,24.15
2023-03-04T23:34:08.863Z,26.43
2023-03-04T23:36:38.089Z,33.28
2023-03-04T23:39:07.764Z,37.47
2023-03-04T23:41:36.512Z,36.67
2023-03-04T23:44:05.643Z,37.67
2023-03-04T23:46:33.985Z,34.47
2023-03-04T23:49:03.649Z,36.85
2023-03-04T23:51:31.971Z,34.80
2023-03-04T23:54:00.449Z,37.17
2023-03-04T23:56:30.495Z,41.33
2023-03-04T23:58:59.232Z,34.80
